sensor_id;sensor_type;location;lat;lon;timestamp;temperature;humidity
5059;DHT22;2548;52.050;11.036;2022-08-11T00:01:52;16.00;98.50
5059;DHT22;2548;52.050;11.036;2022-08-11T00:04:24;15.90;99.00
5059;DHT22;2548;52.050;11.036;2022-08-11T00:06:52;15.80;99.20
5059;DHT22;2548;52.050;11.036;2022-08-11T00:09:22;15.70;99.50
5059;DHT22;2548;52.050;11.036;2022-08-11T00:11:58;15.70;99.90
5059;DHT22;2548;52.050;11.036;2022-08-11T00:14:28;15.70;99.90
5059;DHT22;2548;52.050;11.036;2022-08-11T00:16:59;15.60;99.90
5059;DHT22;2548;52.050;11.036;2022-08-11T00:19:31;15.60;99.90
5059;DHT22;2548;52.050;11.036;2022-08-11T00:21:59;15.50;99.90
5059;DHT22;2548;52.050;11.036;2022-08-11T00:24:32;15.40;99.90
5059;DHT22;2548;52.050;11.036;2022-08-11T00:27:00;15.30;99.90
5059;DHT22;2548;52.050;11.036;2022-08-11T00:29:28;15.30;99.90
5059;DHT22;2548;52.050;11.036;2022-08-11T00:31:57;15.30;99.90
5059;DHT22;2548;52.050;11.036;2022-08-11T00:34:30;15.30;99.90
5059;DHT22;2548;52.050;11.036;2022-08-11T00:37:00;15.20;99.90
5059;DHT22;2548;52.050;11.036;2022-08-11T00:39:31;15.20;99.90
5059;DHT22;2548;52.050;11.036;2022-08-11T00:42:14;15.10;99.90
5059;DHT22;2548;52.050;11.036;2022-08-11T00:44:57;15.00;99.90
5059;DHT22;2548;52.050;11.036;2022-08-11T00:47:36;15.00;99.90
5059;DHT22;2548;52.050;11.036;2022-08-11T00:50:14;15.00;99.90
5059;DHT22;2548;52.050;11.036;2022-08-11T00:52:56;14.90;99.90
5059;DHT22;2548;52.050;11.036;2022-08-11T00:56:00;14.90;99.90
5059;DHT22;2548;52.050;11.036;2022-08-11T01:01:56;14.80;99.90
5059;DHT22;2548;52.050;11.036;2022-08-11T01:04:55;14.80;99.90
5059;DHT22;2548;52.050;11.036;2022-08-11T01:10:50;14.60;99.90
5059;DHT22;2548;52.050;11.036;2022-08-11T01:13:43;14.60;99.90
5059;DHT22;2548;52.050;11.036;2022-08-11T01:19:57;14.50;99.90
5059;DHT22;2548;52.050;11.036;2022-08-11T01:23:01;14.50;99.90
5059;DHT22;2548;52.050;11.036;2022-08-11T01:25:57;14.50;99.90
5059;DHT22;2548;52.050;11.036;2022-08-11T01:28:58;14.50;99.90
5059;DHT22;2548;52.050;11.036;2022-08-11T01:32:13;14.50;99.90
5059;DHT22;2548;52.050;11.036;2022-08-11T01:35:22;14.40;99.90
5059;DHT22;2548;52.050;11.036;2022-08-11T01:44:46;14.50;99.90
5059;DHT22;2548;52.050;11.036;2022-08-11T01:47:30;14.50;99.90
5059;DHT22;2548;52.050;11.036;2022-08-11T01:50:25;14.50;99.90
5059;DHT22;2548;52.050;11.036;2022-08-11T01:53:08;14.60;99.90
5059;DHT22;2548;52.050;11.036;2022-08-11T01:55:50;14.60;99.90
5059;DHT22;2548;52.050;11.036;2022-08-11T01:58:28;14.50;99.90
5059;DHT22;2548;52.050;11.036;2022-08-11T02:01:04;14.50;99.90
5059;DHT22;2548;52.050;11.036;2022-08-11T02:03:38;14.40;99.90
5059;DHT22;2548;52.050;11.036;2022-08-11T02:06:15;14.30;99.90
5059;DHT22;2548;52.050;11.036;2022-08-11T02:09:12;14.20;99.90
5059;DHT22;2548;52.050;11.036;2022-08-11T02:11:45;14.20;99.90
5059;DHT22;2548;52.050;11.036;2022-08-11T02:14:18;14.20;99.90
5059;DHT22;2548;52.050;11.036;2022-08-11T02:16:54;14.30;99.90
5059;DHT22;2548;52.050;11.036;2022-08-11T02:19:34;14.20;99.90
5059;DHT22;2548;52.050;11.036;2022-08-11T02:22:30;14.10;99.90
5059;DHT22;2548;52.050;11.036;2022-08-11T02:25:24;14.10;99.90
5059;DHT22;2548;52.050;11.036;2022-08-11T02:28:00;14.00;99.90
5059;DHT22;2548;52.050;11.036;2022-08-11T02:30:34;13.90;99.90
5059;DHT22;2548;52.050;11.036;2022-08-11T02:33:14;13.80;99.90
5059;DHT22;2548;52.050;11.036;2022-08-11T02:36:07;13.80;99.90
5059;DHT22;2548;52.050;11.036;2022-08-11T02:38:42;13.70;99.90
5059;DHT22;2548;52.050;11.036;2022-08-11T02:41:18;13.70;99.90
5059;DHT22;2548;52.050;11.036;2022-08-11T02:44:17;13.60;99.90
5059;DHT22;2548;52.050;11.036;2022-08-11T02:47:06;13.60;99.90
5059;DHT22;2548;52.050;11.036;2022-08-11T02:49:43;13.50;99.90
5059;DHT22;2548;52.050;11.036;2022-08-11T02:52:28;13.50;99.90
5059;DHT22;2548;52.050;11.036;2022-08-11T02:55:17;13.30;99.90
5059;DHT22;2548;52.050;11.036;2022-08-11T02:57:52;13.30;99.90
5059;DHT22;2548;52.050;11.036;2022-08-11T03:00:21;13.30;99.90
5059;DHT22;2548;52.050;11.036;2022-08-11T03:03:12;13.10;99.90
5059;DHT22;2548;52.050;11.036;2022-08-11T03:05:50;13.10;99.90
5059;DHT22;2548;52.050;11.036;2022-08-11T03:08:43;13.20;99.90
5059;DHT22;2548;52.050;11.036;2022-08-11T03:11:29;13.10;99.90
5059;DHT22;2548;52.050;11.036;2022-08-11T03:14:28;13.00;99.90
5059;DHT22;2548;52.050;11.036;2022-08-11T03:17:22;12.90;99.90
5059;DHT22;2548;52.050;11.036;2022-08-11T03:20:02;12.90;99.90
5059;DHT22;2548;52.050;11.036;2022-08-11T03:22:39;12.90;99.90
5059;DHT22;2548;52.050;11.036;2022-08-11T03:25:27;12.90;99.90
5059;DHT22;2548;52.050;11.036;2022-08-11T03:28:08;12.90;99.90
5059;DHT22;2548;52.050;11.036;2022-08-11T03:30:47;12.90;99.90
5059;DHT22;2548;52.050;11.036;2022-08-11T03:33:22;12.90;99.90
5059;DHT22;2548;52.050;11.036;2022-08-11T03:36:18;13.00;99.90
5059;DHT22;2548;52.050;11.036;2022-08-11T03:39:07;13.00;99.90
5059;DHT22;2548;52.050;11.036;2022-08-11T03:41:37;13.00;99.90
5059;DHT22;2548;52.050;11.036;2022-08-11T03:44:27;13.00;99.90
5059;DHT22;2548;52.050;11.036;2022-08-11T03:47:13;12.90;99.90
5059;DHT22;2548;52.050;11.036;2022-08-11T03:50:03;12.80;99.90
5059;DHT22;2548;52.050;11.036;2022-08-11T03:52:47;12.70;99.90
5059;DHT22;2548;52.050;11.036;2022-08-11T03:55:26;12.70;99.90
5059;DHT22;2548;52.050;11.036;2022-08-11T03:58:31;12.70;99.90
5059;DHT22;2548;52.050;11.036;2022-08-11T04:01:37;12.80;99.90
5059;DHT22;2548;52.050;11.036;2022-08-11T04:17:16;12.90;99.90
5059;DHT22;2548;52.050;11.036;2022-08-11T04:23:10;12.90;99.90
5059;DHT22;2548;52.050;11.036;2022-08-11T04:25:55;13.00;99.90
5059;DHT22;2548;52.050;11.036;2022-08-11T04:28:59;13.10;99.90
5059;DHT22;2548;52.050;11.036;2022-08-11T04:31:36;13.20;99.90
5059;DHT22;2548;52.050;11.036;2022-08-11T04:37:35;13.20;99.90
5059;DHT22;2548;52.050;11.036;2022-08-11T04:40:39;13.20;99.90
5059;DHT22;2548;52.050;11.036;2022-08-11T04:43:38;13.20;99.90
5059;DHT22;2548;52.050;11.036;2022-08-11T04:46:49;13.20;99.90
5059;DHT22;2548;52.050;11.036;2022-08-11T04:49:37;13.20;99.90
5059;DHT22;2548;52.050;11.036;2022-08-11T04:52:51;13.20;99.90
5059;DHT22;2548;52.050;11.036;2022-08-11T04:56:01;13.30;99.90
5059;DHT22;2548;52.050;11.036;2022-08-11T05:02:14;13.30;99.90
5059;DHT22;2548;52.050;11.036;2022-08-11T05:04:58;13.30;99.90
5059;DHT22;2548;52.050;11.036;2022-08-11T05:11:11;13.50;99.90
5059;DHT22;2548;52.050;11.036;2022-08-11T05:13:45;13.50;99.90
5059;DHT22;2548;52.050;11.036;2022-08-11T05:16:43;13.50;99.90
5059;DHT22;2548;52.050;11.036;2022-08-11T05:19:32;13.70;99.90
5059;DHT22;2548;52.050;11.036;2022-08-11T05:22:19;13.80;99.90
5059;DHT22;2548;52.050;11.036;2022-08-11T05:25:08;13.90;99.90
5059;DHT22;2548;52.050;11.036;2022-08-11T05:28:01;13.90;99.90
5059;DHT22;2548;52.050;11.036;2022-08-11T05:30:47;14.00;99.90
5059;DHT22;2548;52.050;11.036;2022-08-11T05:33:35;14.10;99.90
5059;DHT22;2548;52.050;11.036;2022-08-11T05:36:28;14.20;99.90
5059;DHT22;2548;52.050;11.036;2022-08-11T05:39:02;14.30;99.90
5059;DHT22;2548;52.050;11.036;2022-08-11T05:41:49;14.40;99.90
5059;DHT22;2548;52.050;11.036;2022-08-11T05:44:36;14.60;99.90
5059;DHT22;2548;52.050;11.036;2022-08-11T05:47:24;14.70;99.90
5059;DHT22;2548;52.050;11.036;2022-08-11T05:50:11;14.90;99.90
5059;DHT22;2548;52.050;11.036;2022-08-11T05:52:56;15.00;99.90
5059;DHT22;2548;52.050;11.036;2022-08-11T05:55:43;15.10;99.90
5059;DHT22;2548;52.050;11.036;2022-08-11T05:58:33;15.30;99.90
5059;DHT22;2548;52.050;11.036;2022-08-11T06:01:01;15.40;99.90
5059;DHT22;2548;52.050;11.036;2022-08-11T06:03:32;15.60;99.90
5059;DHT22;2548;52.050;11.036;2022-08-11T06:06:20;15.70;99.90
5059;DHT22;2548;52.050;11.036;2022-08-11T06:08:48;15.90;99.90
5059;DHT22;2548;52.050;11.036;2022-08-11T06:11:17;16.00;99.90
5059;DHT22;2548;52.050;11.036;2022-08-11T06:13:45;16.10;99.90
5059;DHT22;2548;52.050;11.036;2022-08-11T06:16:14;16.30;99.90
5059;DHT22;2548;52.050;11.036;2022-08-11T06:18:48;16.40;99.90
5059;DHT22;2548;52.050;11.036;2022-08-11T06:21:17;16.60;99.90
5059;DHT22;2548;52.050;11.036;2022-08-11T06:23:45;16.80;99.90
5059;DHT22;2548;52.050;11.036;2022-08-11T06:26:13;16.90;99.90
5059;DHT22;2548;52.050;11.036;2022-08-11T06:28:44;17.10;99.90
5059;DHT22;2548;52.050;11.036;2022-08-11T06:31:14;17.30;99.90
5059;DHT22;2548;52.050;11.036;2022-08-11T06:33:53;17.50;99.90
5059;DHT22;2548;52.050;11.036;2022-08-11T06:36:29;17.70;99.90
5059;DHT22;2548;52.050;11.036;2022-08-11T06:39:05;17.80;99.90
5059;DHT22;2548;52.050;11.036;2022-08-11T06:41:43;18.00;99.90
5059;DHT22;2548;52.050;11.036;2022-08-11T06:44:22;18.10;99.90
5059;DHT22;2548;52.050;11.036;2022-08-11T06:46:51;18.40;99.90
5059;DHT22;2548;52.050;11.036;2022-08-11T06:49:23;18.50;99.90
5059;DHT22;2548;52.050;11.036;2022-08-11T06:52:16;18.60;99.90
5059;DHT22;2548;52.050;11.036;2022-08-11T06:54:50;18.80;99.90
5059;DHT22;2548;52.050;11.036;2022-08-11T06:57:29;19.00;99.90
5059;DHT22;2548;52.050;11.036;2022-08-11T07:00:17;19.20;99.90
5059;DHT22;2548;52.050;11.036;2022-08-11T07:02:59;19.40;99.90
5059;DHT22;2548;52.050;11.036;2022-08-11T07:05:38;19.60;99.90
5059;DHT22;2548;52.050;11.036;2022-08-11T07:08:31;19.80;99.90
5059;DHT22;2548;52.050;11.036;2022-08-11T07:11:54;20.10;99.90
5059;DHT22;2548;52.050;11.036;2022-08-11T07:14:48;20.30;99.90
5059;DHT22;2548;52.050;11.036;2022-08-11T07:17:40;20.50;99.90
5059;DHT22;2548;52.050;11.036;2022-08-11T07:20:09;20.70;99.90
5059;DHT22;2548;52.050;11.036;2022-08-11T07:22:58;20.80;99.90
5059;DHT22;2548;52.050;11.036;2022-08-11T07:25:48;21.00;99.90
5059;DHT22;2548;52.050;11.036;2022-08-11T07:28:40;21.20;99.90
5059;DHT22;2548;52.050;11.036;2022-08-11T07:31:27;21.40;99.90
5059;DHT22;2548;52.050;11.036;2022-08-11T07:34:03;21.60;99.90
5059;DHT22;2548;52.050;11.036;2022-08-11T07:36:33;21.70;99.90
5059;DHT22;2548;52.050;11.036;2022-08-11T07:39:07;21.90;99.90
5059;DHT22;2548;52.050;11.036;2022-08-11T07:41:37;22.10;99.90
5059;DHT22;2548;52.050;11.036;2022-08-11T07:44:04;22.30;99.90
5059;DHT22;2548;52.050;11.036;2022-08-11T07:46:37;22.40;99.90
5059;DHT22;2548;52.050;11.036;2022-08-11T07:49:33;22.70;99.90
5059;DHT22;2548;52.050;11.036;2022-08-11T07:52:19;22.90;99.90
5059;DHT22;2548;52.050;11.036;2022-08-11T07:54:59;23.10;99.90
5059;DHT22;2548;52.050;11.036;2022-08-11T07:57:28;23.30;99.90
5059;DHT22;2548;52.050;11.036;2022-08-11T08:00:15;23.50;99.90
5059;DHT22;2548;52.050;11.036;2022-08-11T08:03:01;23.70;99.90
5059;DHT22;2548;52.050;11.036;2022-08-11T08:05:49;23.90;99.90
5059;DHT22;2548;52.050;11.036;2022-08-11T08:08:34;24.10;99.90
5059;DHT22;2548;52.050;11.036;2022-08-11T08:11:20;24.10;99.50
5059;DHT22;2548;52.050;11.036;2022-08-11T08:14:07;24.30;99.60
5059;DHT22;2548;52.050;11.036;2022-08-11T08:16:54;24.40;98.90
5059;DHT22;2548;52.050;11.036;2022-08-11T08:19:40;24.60;98.20
5059;DHT22;2548;52.050;11.036;2022-08-11T08:22:11;24.80;98.20
5059;DHT22;2548;52.050;11.036;2022-08-11T08:24:42;24.90;97.90
5059;DHT22;2548;52.050;11.036;2022-08-11T08:27:12;25.10;97.60
5059;DHT22;2548;52.050;11.036;2022-08-11T08:29:41;25.30;97.40
5059;DHT22;2548;52.050;11.036;2022-08-11T08:32:28;25.50;96.70
5059;DHT22;2548;52.050;11.036;2022-08-11T08:34:58;25.60;95.90
5059;DHT22;2548;52.050;11.036;2022-08-11T08:37:27;25.70;96.00
5059;DHT22;2548;52.050;11.036;2022-08-11T08:39:55;25.80;95.40
5059;DHT22;2548;52.050;11.036;2022-08-11T08:42:26;26.10;95.40
5059;DHT22;2548;52.050;11.036;2022-08-11T08:44:58;26.20;94.90
5059;DHT22;2548;52.050;11.036;2022-08-11T08:47:28;26.40;94.40
5059;DHT22;2548;52.050;11.036;2022-08-11T08:49:59;26.60;94.20
5059;DHT22;2548;52.050;11.036;2022-08-11T08:52:33;26.70;92.90
5059;DHT22;2548;52.050;11.036;2022-08-11T08:55:06;26.70;93.40
5059;DHT22;2548;52.050;11.036;2022-08-11T08:57:37;26.80;93.00
5059;DHT22;2548;52.050;11.036;2022-08-11T09:00:06;27.00;92.50
5059;DHT22;2548;52.050;11.036;2022-08-11T09:02:34;27.20;91.40
5059;DHT22;2548;52.050;11.036;2022-08-11T09:05:04;27.20;91.40
5059;DHT22;2548;52.050;11.036;2022-08-11T09:07:34;27.20;91.20
5059;DHT22;2548;52.050;11.036;2022-08-11T09:10:03;27.30;91.20
5059;DHT22;2548;52.050;11.036;2022-08-11T09:12:31;27.50;90.90
5059;DHT22;2548;52.050;11.036;2022-08-11T09:15:03;27.60;89.60
5059;DHT22;2548;52.050;11.036;2022-08-11T09:17:36;27.80;89.10
5059;DHT22;2548;52.050;11.036;2022-08-11T09:20:07;27.90;88.10
5059;DHT22;2548;52.050;11.036;2022-08-11T09:22:39;28.00;86.50
5059;DHT22;2548;52.050;11.036;2022-08-11T09:25:30;28.20;86.00
5059;DHT22;2548;52.050;11.036;2022-08-11T09:28:17;28.30;84.70
5059;DHT22;2548;52.050;11.036;2022-08-11T09:30:47;28.50;82.40
5059;DHT22;2548;52.050;11.036;2022-08-11T09:33:19;28.70;82.90
5059;DHT22;2548;52.050;11.036;2022-08-11T09:35:48;28.70;83.40
5059;DHT22;2548;52.050;11.036;2022-08-11T09:38:19;28.50;82.40
5059;DHT22;2548;52.050;11.036;2022-08-11T09:41:08;28.70;82.50
5059;DHT22;2548;52.050;11.036;2022-08-11T09:43:39;28.80;81.80
5059;DHT22;2548;52.050;11.036;2022-08-11T09:46:27;29.00;80.30
5059;DHT22;2548;52.050;11.036;2022-08-11T09:48:58;29.00;78.10
5059;DHT22;2548;52.050;11.036;2022-08-11T09:51:30;29.00;78.90
5059;DHT22;2548;52.050;11.036;2022-08-11T09:54:02;29.20;78.40
5059;DHT22;2548;52.050;11.036;2022-08-11T09:56:32;29.30;76.10
5059;DHT22;2548;52.050;11.036;2022-08-11T09:59:19;29.20;76.80
5059;DHT22;2548;52.050;11.036;2022-08-11T10:01:49;29.30;77.30
5059;DHT22;2548;52.050;11.036;2022-08-11T10:04:21;29.40;76.30
5059;DHT22;2548;52.050;11.036;2022-08-11T10:06:52;29.50;74.50
5059;DHT22;2548;52.050;11.036;2022-08-11T10:09:35;29.40;74.80
5059;DHT22;2548;52.050;11.036;2022-08-11T10:12:08;29.50;76.20
5059;DHT22;2548;52.050;11.036;2022-08-11T10:14:41;29.40;75.50
5059;DHT22;2548;52.050;11.036;2022-08-11T10:17:30;29.60;76.10
5059;DHT22;2548;52.050;11.036;2022-08-11T10:19:59;29.80;75.50
5059;DHT22;2548;52.050;11.036;2022-08-11T10:22:29;29.90;73.30
5059;DHT22;2548;52.050;11.036;2022-08-11T10:25:16;30.00;72.80
5059;DHT22;2548;52.050;11.036;2022-08-11T10:28:03;29.90;72.50
5059;DHT22;2548;52.050;11.036;2022-08-11T10:30:39;30.00;73.50
5059;DHT22;2548;52.050;11.036;2022-08-11T10:33:24;30.20;72.80
5059;DHT22;2548;52.050;11.036;2022-08-11T10:36:10;30.30;71.30
5059;DHT22;2548;52.050;11.036;2022-08-11T10:38:39;30.30;70.70
5059;DHT22;2548;52.050;11.036;2022-08-11T10:41:08;30.40;72.20
5059;DHT22;2548;52.050;11.036;2022-08-11T10:43:54;30.60;71.30
5059;DHT22;2548;52.050;11.036;2022-08-11T10:46:23;30.80;70.60
5059;DHT22;2548;52.050;11.036;2022-08-11T10:49:08;30.90;69.20
5059;DHT22;2548;52.050;11.036;2022-08-11T10:51:36;31.00;67.80
5059;DHT22;2548;52.050;11.036;2022-08-11T10:54:25;31.00;67.60
5059;DHT22;2548;52.050;11.036;2022-08-11T10:57:13;31.10;67.50
5059;DHT22;2548;52.050;11.036;2022-08-11T10:59:59;31.10;67.00
5059;DHT22;2548;52.050;11.036;2022-08-11T11:02:28;31.10;67.40
5059;DHT22;2548;52.050;11.036;2022-08-11T11:05:03;31.20;66.30
5059;DHT22;2548;52.050;11.036;2022-08-11T11:07:41;31.30;66.40
5059;DHT22;2548;52.050;11.036;2022-08-11T11:10:15;31.40;66.00
5059;DHT22;2548;52.050;11.036;2022-08-11T11:12:45;31.50;66.70
5059;DHT22;2548;52.050;11.036;2022-08-11T11:15:34;31.60;67.30
5059;DHT22;2548;52.050;11.036;2022-08-11T11:18:23;31.60;66.20
5059;DHT22;2548;52.050;11.036;2022-08-11T11:20:55;31.70;66.10
5059;DHT22;2548;52.050;11.036;2022-08-11T11:23:27;31.70;65.40
5059;DHT22;2548;52.050;11.036;2022-08-11T11:29:06;31.80;65.20
5059;DHT22;2548;52.050;11.036;2022-08-11T11:31:49;31.90;65.50
5059;DHT22;2548;52.050;11.036;2022-08-11T11:34:36;31.90;63.00
5059;DHT22;2548;52.050;11.036;2022-08-11T11:37:09;31.80;63.10
5059;DHT22;2548;52.050;11.036;2022-08-11T11:39:38;32.00;63.80
5059;DHT22;2548;52.050;11.036;2022-08-11T11:42:08;32.10;63.30
5059;DHT22;2548;52.050;11.036;2022-08-11T11:44:38;32.00;62.70
5059;DHT22;2548;52.050;11.036;2022-08-11T11:47:06;32.10;62.30
5059;DHT22;2548;52.050;11.036;2022-08-11T11:49:35;32.20;63.20
5059;DHT22;2548;52.050;11.036;2022-08-11T11:52:06;32.30;62.00
5059;DHT22;2548;52.050;11.036;2022-08-11T11:54:35;32.50;62.40
5059;DHT22;2548;52.050;11.036;2022-08-11T11:57:03;32.30;61.70
5059;DHT22;2548;52.050;11.036;2022-08-11T11:59:47;32.30;62.30
5059;DHT22;2548;52.050;11.036;2022-08-11T12:02:35;32.40;61.60
5059;DHT22;2548;52.050;11.036;2022-08-11T12:05:04;32.50;61.40
5059;DHT22;2548;52.050;11.036;2022-08-11T12:07:33;32.60;61.20
5059;DHT22;2548;52.050;11.036;2022-08-11T12:10:20;32.70;60.00
5059;DHT22;2548;52.050;11.036;2022-08-11T12:12:48;32.60;60.00
5059;DHT22;2548;52.050;11.036;2022-08-11T12:15:36;32.50;59.80
5059;DHT22;2548;52.050;11.036;2022-08-11T12:18:04;32.60;59.50
5059;DHT22;2548;52.050;11.036;2022-08-11T12:20:32;32.70;59.90
5059;DHT22;2548;52.050;11.036;2022-08-11T12:23:00;32.70;59.90
5059;DHT22;2548;52.050;11.036;2022-08-11T12:25:46;32.80;58.80
5059;DHT22;2548;52.050;11.036;2022-08-11T12:28:31;32.80;57.50
5059;DHT22;2548;52.050;11.036;2022-08-11T12:31:03;32.60;57.60
5059;DHT22;2548;52.050;11.036;2022-08-11T12:33:31;32.40;57.90
5059;DHT22;2548;52.050;11.036;2022-08-11T12:35:59;32.30;58.20
5059;DHT22;2548;52.050;11.036;2022-08-11T12:38:27;32.40;58.60
5059;DHT22;2548;52.050;11.036;2022-08-11T12:40:55;32.60;58.30
5059;DHT22;2548;52.050;11.036;2022-08-11T12:43:44;32.70;59.20
5059;DHT22;2548;52.050;11.036;2022-08-11T12:46:32;33.00;58.10
5059;DHT22;2548;52.050;11.036;2022-08-11T12:49:05;33.10;56.80
5059;DHT22;2548;52.050;11.036;2022-08-11T12:51:53;33.00;57.00
5059;DHT22;2548;52.050;11.036;2022-08-11T12:54:30;32.80;55.70
5059;DHT22;2548;52.050;11.036;2022-08-11T12:57:01;32.60;56.30
5059;DHT22;2548;52.050;11.036;2022-08-11T12:59:47;32.80;57.20
5059;DHT22;2548;52.050;11.036;2022-08-11T13:02:34;33.00;56.00
5059;DHT22;2548;52.050;11.036;2022-08-11T13:05:20;33.20;56.00
5059;DHT22;2548;52.050;11.036;2022-08-11T13:07:48;33.30;55.00
5059;DHT22;2548;52.050;11.036;2022-08-11T13:10:18;33.40;54.70
5059;DHT22;2548;52.050;11.036;2022-08-11T13:13:07;33.00;53.30
5059;DHT22;2548;52.050;11.036;2022-08-11T13:15:34;32.80;54.80
5059;DHT22;2548;52.050;11.036;2022-08-11T13:18:04;32.80;55.70
5059;DHT22;2548;52.050;11.036;2022-08-11T13:20:34;33.00;55.20
5059;DHT22;2548;52.050;11.036;2022-08-11T13:23:02;33.10;55.30
5059;DHT22;2548;52.050;11.036;2022-08-11T13:25:31;33.20;55.10
5059;DHT22;2548;52.050;11.036;2022-08-11T13:28:00;33.40;55.20
5059;DHT22;2548;52.050;11.036;2022-08-11T13:30:29;33.50;55.00
5059;DHT22;2548;52.050;11.036;2022-08-11T13:33:17;33.40;52.70
5059;DHT22;2548;52.050;11.036;2022-08-11T13:35:47;33.50;53.70
5059;DHT22;2548;52.050;11.036;2022-08-11T13:38:18;33.50;52.00
5059;DHT22;2548;52.050;11.036;2022-08-11T13:40:48;33.50;51.50
5059;DHT22;2548;52.050;11.036;2022-08-11T13:43:17;33.50;52.70
5059;DHT22;2548;52.050;11.036;2022-08-11T13:45:46;33.50;51.80
5059;DHT22;2548;52.050;11.036;2022-08-11T13:48:16;33.40;51.70
5059;DHT22;2548;52.050;11.036;2022-08-11T13:50:44;33.40;50.90
5059;DHT22;2548;52.050;11.036;2022-08-11T13:53:30;33.30;52.00
5059;DHT22;2548;52.050;11.036;2022-08-11T13:55:59;33.30;50.60
5059;DHT22;2548;52.050;11.036;2022-08-11T13:58:28;33.20;52.20
5059;DHT22;2548;52.050;11.036;2022-08-11T14:00:57;33.30;52.40
5059;DHT22;2548;52.050;11.036;2022-08-11T14:03:27;33.30;51.70
5059;DHT22;2548;52.050;11.036;2022-08-11T14:05:57;33.30;52.50
5059;DHT22;2548;52.050;11.036;2022-08-11T14:08:29;33.00;52.50
5059;DHT22;2548;52.050;11.036;2022-08-11T14:11:00;33.10;53.60
5059;DHT22;2548;52.050;11.036;2022-08-11T14:13:49;33.20;53.40
5059;DHT22;2548;52.050;11.036;2022-08-11T14:16:21;33.30;53.50
5059;DHT22;2548;52.050;11.036;2022-08-11T14:18:54;33.40;52.90
5059;DHT22;2548;52.050;11.036;2022-08-11T14:21:24;33.20;51.60
5059;DHT22;2548;52.050;11.036;2022-08-11T14:24:10;33.20;51.00
5059;DHT22;2548;52.050;11.036;2022-08-11T14:26:39;33.20;51.40
5059;DHT22;2548;52.050;11.036;2022-08-11T14:29:11;33.20;51.00
5059;DHT22;2548;52.050;11.036;2022-08-11T14:31:44;33.20;50.80
5059;DHT22;2548;52.050;11.036;2022-08-11T14:34:14;33.00;51.00
5059;DHT22;2548;52.050;11.036;2022-08-11T14:36:50;33.00;51.20
5059;DHT22;2548;52.050;11.036;2022-08-11T14:39:23;32.90;51.70
5059;DHT22;2548;52.050;11.036;2022-08-11T14:41:55;32.80;48.40
5059;DHT22;2548;52.050;11.036;2022-08-11T14:44:43;32.90;50.90
5059;DHT22;2548;52.050;11.036;2022-08-11T14:47:46;33.00;51.40
5059;DHT22;2548;52.050;11.036;2022-08-11T14:50:18;33.20;51.30
5059;DHT22;2548;52.050;11.036;2022-08-11T14:52:50;33.20;50.10
5059;DHT22;2548;52.050;11.036;2022-08-11T14:55:22;33.00;50.60
5059;DHT22;2548;52.050;11.036;2022-08-11T14:58:08;33.20;51.10
5059;DHT22;2548;52.050;11.036;2022-08-11T15:00:37;33.10;49.00
5059;DHT22;2548;52.050;11.036;2022-08-11T15:03:07;33.10;48.30
5059;DHT22;2548;52.050;11.036;2022-08-11T15:05:38;33.00;48.80
5059;DHT22;2548;52.050;11.036;2022-08-11T15:08:07;32.90;49.50
5059;DHT22;2548;52.050;11.036;2022-08-11T15:10:35;32.80;49.00
5059;DHT22;2548;52.050;11.036;2022-08-11T15:13:03;33.00;50.60
5059;DHT22;2548;52.050;11.036;2022-08-11T15:15:32;33.10;49.60
5059;DHT22;2548;52.050;11.036;2022-08-11T15:18:19;33.30;49.10
5059;DHT22;2548;52.050;11.036;2022-08-11T15:20:51;33.20;49.00
5059;DHT22;2548;52.050;11.036;2022-08-11T15:23:38;33.20;50.60
5059;DHT22;2548;52.050;11.036;2022-08-11T15:26:29;33.30;49.60
5059;DHT22;2548;52.050;11.036;2022-08-11T15:29:18;33.30;50.00
5059;DHT22;2548;52.050;11.036;2022-08-11T15:32:05;33.40;49.90
5059;DHT22;2548;52.050;11.036;2022-08-11T15:34:54;33.20;49.10
5059;DHT22;2548;52.050;11.036;2022-08-11T15:37:44;33.20;51.20
5059;DHT22;2548;52.050;11.036;2022-08-11T15:40:22;33.20;50.60
5059;DHT22;2548;52.050;11.036;2022-08-11T15:43:10;33.20;49.50
5059;DHT22;2548;52.050;11.036;2022-08-11T15:46:00;33.00;50.50
5059;DHT22;2548;52.050;11.036;2022-08-11T15:48:34;32.90;49.90
5059;DHT22;2548;52.050;11.036;2022-08-11T15:51:09;32.80;49.70
5059;DHT22;2548;52.050;11.036;2022-08-11T15:53:46;32.40;50.30
5059;DHT22;2548;52.050;11.036;2022-08-11T15:56:16;32.50;50.90
5059;DHT22;2548;52.050;11.036;2022-08-11T15:58:46;32.50;50.20
5059;DHT22;2548;52.050;11.036;2022-08-11T16:01:33;32.50;51.00
5059;DHT22;2548;52.050;11.036;2022-08-11T16:04:21;32.50;51.10
5059;DHT22;2548;52.050;11.036;2022-08-11T16:06:54;32.60;51.00
5059;DHT22;2548;52.050;11.036;2022-08-11T16:09:29;32.60;50.90
5059;DHT22;2548;52.050;11.036;2022-08-11T16:12:01;32.60;49.80
5059;DHT22;2548;52.050;11.036;2022-08-11T16:14:34;32.60;49.60
5059;DHT22;2548;52.050;11.036;2022-08-11T16:17:20;32.60;49.90
5059;DHT22;2548;52.050;11.036;2022-08-11T16:19:52;32.60;50.50
5059;DHT22;2548;52.050;11.036;2022-08-11T16:22:22;32.60;49.90
5059;DHT22;2548;52.050;11.036;2022-08-11T16:25:02;32.50;49.90
5059;DHT22;2548;52.050;11.036;2022-08-11T16:27:33;32.40;50.00
5059;DHT22;2548;52.050;11.036;2022-08-11T16:30:03;32.30;50.40
5059;DHT22;2548;52.050;11.036;2022-08-11T16:32:33;32.20;50.70
5059;DHT22;2548;52.050;11.036;2022-08-11T16:35:05;32.10;51.10
5059;DHT22;2548;52.050;11.036;2022-08-11T16:37:52;31.90;50.10
5059;DHT22;2548;52.050;11.036;2022-08-11T16:40:42;31.90;50.10
5059;DHT22;2548;52.050;11.036;2022-08-11T16:43:14;31.70;50.20
5059;DHT22;2548;52.050;11.036;2022-08-11T16:46:02;31.70;50.70
5059;DHT22;2548;52.050;11.036;2022-08-11T16:49:05;31.70;51.00
5059;DHT22;2548;52.050;11.036;2022-08-11T16:51:33;31.70;49.80
5059;DHT22;2548;52.050;11.036;2022-08-11T16:54:01;31.70;49.80
5059;DHT22;2548;52.050;11.036;2022-08-11T16:56:34;31.70;50.30
5059;DHT22;2548;52.050;11.036;2022-08-11T16:59:06;31.80;50.90
5059;DHT22;2548;52.050;11.036;2022-08-11T17:01:43;31.90;50.70
5059;DHT22;2548;52.050;11.036;2022-08-11T17:04:16;31.90;50.30
5059;DHT22;2548;52.050;11.036;2022-08-11T17:07:04;32.00;51.10
5059;DHT22;2548;52.050;11.036;2022-08-11T17:09:51;31.70;51.70
5059;DHT22;2548;52.050;11.036;2022-08-11T17:12:40;31.70;50.10
5059;DHT22;2548;52.050;11.036;2022-08-11T17:15:39;31.60;51.10
5059;DHT22;2548;52.050;11.036;2022-08-11T17:18:25;31.50;51.10
5059;DHT22;2548;52.050;11.036;2022-08-11T17:21:11;31.30;51.10
5059;DHT22;2548;52.050;11.036;2022-08-11T17:23:42;31.10;50.40
5059;DHT22;2548;52.050;11.036;2022-08-11T17:26:34;31.00;50.90
5059;DHT22;2548;52.050;11.036;2022-08-11T17:29:22;30.80;51.00
5059;DHT22;2548;52.050;11.036;2022-08-11T17:31:52;30.70;52.10
5059;DHT22;2548;52.050;11.036;2022-08-11T17:34:40;30.60;51.80
5059;DHT22;2548;52.050;11.036;2022-08-11T17:37:26;30.60;52.60
5059;DHT22;2548;52.050;11.036;2022-08-11T17:39:56;30.60;52.60
5059;DHT22;2548;52.050;11.036;2022-08-11T17:42:27;30.50;52.90
5059;DHT22;2548;52.050;11.036;2022-08-11T17:45:14;30.50;52.80
5059;DHT22;2548;52.050;11.036;2022-08-11T17:48:02;30.40;53.10